sensor_id;sensor_type;location;lat;lon;timestamp;temperature;humidity
19799;DHT22;10059;59.850;10.454;2022-12-11T00:01:54;-7.70;99.90
19799;DHT22;10059;59.850;10.454;2022-12-11T00:04:21;-7.70;99.90
19799;DHT22;10059;59.850;10.454;2022-12-11T00:06:48;-7.70;99.90
19799;DHT22;10059;59.850;10.454;2022-12-11T00:09:15;-7.60;99.90
19799;DHT22;10059;59.850;10.454;2022-12-11T00:11:43;-7.60;99.90
19799;DHT22;10059;59.850;10.454;2022-12-11T00:14:09;-7.70;99.90
19799;DHT22;10059;59.850;10.454;2022-12-11T00:16:38;-7.80;99.90
19799;DHT22;10059;59.850;10.454;2022-12-11T00:19:05;-7.70;99.90
19799;DHT22;10059;59.850;10.454;2022-12-11T00:21:32;-7.90;99.90
19799;DHT22;10059;59.850;10.454;2022-12-11T00:23:59;-7.90;99.90
19799;DHT22;10059;59.850;10.454;2022-12-11T00:26:25;-8.00;99.90
19799;DHT22;10059;59.850;10.454;2022-12-11T00:28:54;-8.00;99.90
19799;DHT22;10059;59.850;10.454;2022-12-11T00:31:22;-8.00;99.90
19799;DHT22;10059;59.850;10.454;2022-12-11T00:33:50;-8.10;99.90
19799;DHT22;10059;59.850;10.454;2022-12-11T00:36:19;-8.00;99.90
19799;DHT22;10059;59.850;10.454;2022-12-11T00:38:46;-8.00;99.90
19799;DHT22;10059;59.850;10.454;2022-12-11T00:41:13;-8.10;99.90
19799;DHT22;10059;59.850;10.454;2022-12-11T00:43:40;-8.10;99.90
19799;DHT22;10059;59.850;10.454;2022-12-11T00:46:08;-8.10;99.90
19799;DHT22;10059;59.850;10.454;2022-12-11T00:48:35;-8.20;99.90
19799;DHT22;10059;59.850;10.454;2022-12-11T00:51:03;-8.30;99.90
19799;DHT22;10059;59.850;10.454;2022-12-11T00:53:30;-8.30;99.90
19799;DHT22;10059;59.850;10.454;2022-12-11T00:55:57;-8.30;99.90
19799;DHT22;10059;59.850;10.454;2022-12-11T00:58:24;-8.40;99.90
19799;DHT22;10059;59.850;10.454;2022-12-11T01:00:51;-8.50;99.90
19799;DHT22;10059;59.850;10.454;2022-12-11T01:03:18;-8.50;99.90
19799;DHT22;10059;59.850;10.454;2022-12-11T01:05:51;-8.50;99.90
19799;DHT22;10059;59.850;10.454;2022-12-11T01:08:20;-8.50;99.90
19799;DHT22;10059;59.850;10.454;2022-12-11T01:10:47;-8.40;99.90
19799;DHT22;10059;59.850;10.454;2022-12-11T01:13:12;-8.40;99.90
19799;DHT22;10059;59.850;10.454;2022-12-11T01:15:41;-8.40;99.90
19799;DHT22;10059;59.850;10.454;2022-12-11T01:18:09;-8.30;99.90
19799;DHT22;10059;59.850;10.454;2022-12-11T01:20:38;-8.30;99.90
19799;DHT22;10059;59.850;10.454;2022-12-11T01:23:09;-8.30;99.90
19799;DHT22;10059;59.850;10.454;2022-12-11T01:25:38;-8.40;99.90
19799;DHT22;10059;59.850;10.454;2022-12-11T01:28:06;-8.50;99.90
19799;DHT22;10059;59.850;10.454;2022-12-11T01:30:33;-8.40;99.90
19799;DHT22;10059;59.850;10.454;2022-12-11T01:33:01;-8.50;99.90
19799;DHT22;10059;59.850;10.454;2022-12-11T01:35:28;-8.50;99.90
19799;DHT22;10059;59.850;10.454;2022-12-11T01:37:55;-8.50;99.90
19799;DHT22;10059;59.850;10.454;2022-12-11T01:40:23;-8.50;99.90
19799;DHT22;10059;59.850;10.454;2022-12-11T01:42:52;-8.40;99.90
19799;DHT22;10059;59.850;10.454;2022-12-11T01:45:28;-8.40;99.90
19799;DHT22;10059;59.850;10.454;2022-12-11T01:48:00;-8.40;99.90
19799;DHT22;10059;59.850;10.454;2022-12-11T01:50:28;-8.50;99.90
19799;DHT22;10059;59.850;10.454;2022-12-11T01:52:56;-8.50;99.90
19799;DHT22;10059;59.850;10.454;2022-12-11T01:55:24;-8.40;99.90
19799;DHT22;10059;59.850;10.454;2022-12-11T01:57:52;-8.50;99.90
19799;DHT22;10059;59.850;10.454;2022-12-11T02:00:20;-8.50;99.90
19799;DHT22;10059;59.850;10.454;2022-12-11T02:02:47;-8.50;99.90
19799;DHT22;10059;59.850;10.454;2022-12-11T02:05:14;-8.50;99.90
19799;DHT22;10059;59.850;10.454;2022-12-11T02:07:43;-8.40;99.90
19799;DHT22;10059;59.850;10.454;2022-12-11T02:10:12;-8.50;99.90
19799;DHT22;10059;59.850;10.454;2022-12-11T02:12:46;-8.60;99.90
19799;DHT22;10059;59.850;10.454;2022-12-11T02:15:24;-8.60;99.90
19799;DHT22;10059;59.850;10.454;2022-12-11T02:17:59;-8.70;99.90
19799;DHT22;10059;59.850;10.454;2022-12-11T02:20:34;-8.70;99.90
19799;DHT22;10059;59.850;10.454;2022-12-11T02:23:18;-8.80;99.90
19799;DHT22;10059;59.850;10.454;2022-12-11T02:25:52;-8.70;99.90
19799;DHT22;10059;59.850;10.454;2022-12-11T02:28:24;-8.70;99.90
19799;DHT22;10059;59.850;10.454;2022-12-11T02:30:56;-8.70;99.90
19799;DHT22;10059;59.850;10.454;2022-12-11T02:33:32;-8.70;99.90
19799;DHT22;10059;59.850;10.454;2022-12-11T02:36:00;-8.70;99.90
19799;DHT22;10059;59.850;10.454;2022-12-11T02:38:31;-8.70;99.90
19799;DHT22;10059;59.850;10.454;2022-12-11T02:40:59;-8.70;99.90
19799;DHT22;10059;59.850;10.454;2022-12-11T02:43:30;-8.60;99.90
19799;DHT22;10059;59.850;10.454;2022-12-11T02:45:58;-8.60;99.90
19799;DHT22;10059;59.850;10.454;2022-12-11T02:48:26;-8.50;99.90
19799;DHT22;10059;59.850;10.454;2022-12-11T02:50:56;-8.50;99.90
19799;DHT22;10059;59.850;10.454;2022-12-11T02:53:28;-8.50;99.90
19799;DHT22;10059;59.850;10.454;2022-12-11T02:55:59;-8.60;99.90
19799;DHT22;10059;59.850;10.454;2022-12-11T02:58:30;-8.60;99.90
19799;DHT22;10059;59.850;10.454;2022-12-11T03:00:58;-8.60;99.90
19799;DHT22;10059;59.850;10.454;2022-12-11T03:03:27;-8.60;99.90
19799;DHT22;10059;59.850;10.454;2022-12-11T03:05:55;-8.60;99.90
19799;DHT22;10059;59.850;10.454;2022-12-11T03:08:22;-8.50;99.90
19799;DHT22;10059;59.850;10.454;2022-12-11T03:10:49;-8.50;99.90
19799;DHT22;10059;59.850;10.454;2022-12-11T03:13:18;-8.50;99.90
19799;DHT22;10059;59.850;10.454;2022-12-11T03:15:55;-8.50;99.90
19799;DHT22;10059;59.850;10.454;2022-12-11T03:18:30;-8.50;99.90
19799;DHT22;10059;59.850;10.454;2022-12-11T03:21:04;-8.50;99.90
19799;DHT22;10059;59.850;10.454;2022-12-11T03:23:33;-8.60;99.90
19799;DHT22;10059;59.850;10.454;2022-12-11T03:26:03;-8.60;99.90
19799;DHT22;10059;59.850;10.454;2022-12-11T03:28:34;-8.70;99.90
19799;DHT22;10059;59.850;10.454;2022-12-11T03:31:08;-8.70;99.90
19799;DHT22;10059;59.850;10.454;2022-12-11T03:33:39;-8.70;99.90
19799;DHT22;10059;59.850;10.454;2022-12-11T03:36:09;-8.80;99.90
19799;DHT22;10059;59.850;10.454;2022-12-11T03:38:40;-8.80;99.90
19799;DHT22;10059;59.850;10.454;2022-12-11T03:41:11;-8.60;99.90
19799;DHT22;10059;59.850;10.454;2022-12-11T03:43:40;-8.50;99.90
19799;DHT22;10059;59.850;10.454;2022-12-11T03:46:10;-8.50;99.90
19799;DHT22;10059;59.850;10.454;2022-12-11T03:48:40;-8.50;99.90
19799;DHT22;10059;59.850;10.454;2022-12-11T03:51:09;-8.50;99.90
19799;DHT22;10059;59.850;10.454;2022-12-11T03:53:37;-8.50;99.90
19799;DHT22;10059;59.850;10.454;2022-12-11T03:56:06;-8.60;99.90
19799;DHT22;10059;59.850;10.454;2022-12-11T03:58:34;-8.60;99.90
19799;DHT22;10059;59.850;10.454;2022-12-11T04:01:01;-8.60;99.90
19799;DHT22;10059;59.850;10.454;2022-12-11T04:03:29;-8.60;99.90
19799;DHT22;10059;59.850;10.454;2022-12-11T04:05:56;-8.60;99.90
19799;DHT22;10059;59.850;10.454;2022-12-11T04:08:22;-8.60;99.90
19799;DHT22;10059;59.850;10.454;2022-12-11T04:10:50;-8.50;99.90
19799;DHT22;10059;59.850;10.454;2022-12-11T04:13:38;-8.50;99.90
19799;DHT22;10059;59.850;10.454;2022-12-11T04:16:06;-8.40;99.90
19799;DHT22;10059;59.850;10.454;2022-12-11T04:18:33;-8.50;99.90
19799;DHT22;10059;59.850;10.454;2022-12-11T04:21:17;-8.40;99.90
19799;DHT22;10059;59.850;10.454;2022-12-11T04:24:02;-8.40;99.90
19799;DHT22;10059;59.850;10.454;2022-12-11T04:26:42;-8.40;99.90
19799;DHT22;10059;59.850;10.454;2022-12-11T04:29:09;-8.30;99.90
19799;DHT22;10059;59.850;10.454;2022-12-11T04:31:35;-8.30;99.90
19799;DHT22;10059;59.850;10.454;2022-12-11T04:34:04;-8.30;99.90
19799;DHT22;10059;59.850;10.454;2022-12-11T04:36:31;-8.30;99.90
19799;DHT22;10059;59.850;10.454;2022-12-11T04:38:57;-8.30;99.90
19799;DHT22;10059;59.850;10.454;2022-12-11T04:41:24;-8.30;99.90
19799;DHT22;10059;59.850;10.454;2022-12-11T04:43:51;-8.20;99.90
19799;DHT22;10059;59.850;10.454;2022-12-11T04:46:19;-8.30;99.90
19799;DHT22;10059;59.850;10.454;2022-12-11T04:48:46;-8.20;99.90
19799;DHT22;10059;59.850;10.454;2022-12-11T04:51:15;-8.20;99.90
19799;DHT22;10059;59.850;10.454;2022-12-11T04:53:43;-8.30;99.90
19799;DHT22;10059;59.850;10.454;2022-12-11T04:56:12;-8.30;99.90
19799;DHT22;10059;59.850;10.454;2022-12-11T04:58:41;-8.30;99.90
19799;DHT22;10059;59.850;10.454;2022-12-11T05:01:08;-8.30;99.90
19799;DHT22;10059;59.850;10.454;2022-12-11T05:03:36;-8.30;99.90
19799;DHT22;10059;59.850;10.454;2022-12-11T05:06:03;-8.20;99.90
19799;DHT22;10059;59.850;10.454;2022-12-11T05:08:34;-8.30;99.90
19799;DHT22;10059;59.850;10.454;2022-12-11T05:11:03;-8.30;99.90
19799;DHT22;10059;59.850;10.454;2022-12-11T05:13:31;-8.20;99.90
19799;DHT22;10059;59.850;10.454;2022-12-11T05:15:58;-8.20;99.90
19799;DHT22;10059;59.850;10.454;2022-12-11T05:18:25;-8.10;99.90
19799;DHT22;10059;59.850;10.454;2022-12-11T05:20:55;-8.10;99.90
19799;DHT22;10059;59.850;10.454;2022-12-11T05:23:22;-8.10;99.90
19799;DHT22;10059;59.850;10.454;2022-12-11T05:25:52;-8.00;99.90
19799;DHT22;10059;59.850;10.454;2022-12-11T05:28:20;-7.90;99.90
19799;DHT22;10059;59.850;10.454;2022-12-11T05:30:47;-7.90;99.90
19799;DHT22;10059;59.850;10.454;2022-12-11T05:33:13;-7.90;99.90
19799;DHT22;10059;59.850;10.454;2022-12-11T05:35:46;-7.80;99.90
19799;DHT22;10059;59.850;10.454;2022-12-11T05:38:13;-7.70;99.90
19799;DHT22;10059;59.850;10.454;2022-12-11T05:40:40;-7.70;99.90
19799;DHT22;10059;59.850;10.454;2022-12-11T05:43:08;-7.60;99.90
19799;DHT22;10059;59.850;10.454;2022-12-11T05:45:35;-7.50;99.90
19799;DHT22;10059;59.850;10.454;2022-12-11T05:48:03;-7.30;99.90
19799;DHT22;10059;59.850;10.454;2022-12-11T05:50:29;-7.30;99.90
19799;DHT22;10059;59.850;10.454;2022-12-11T05:52:57;-7.30;99.90
19799;DHT22;10059;59.850;10.454;2022-12-11T05:55:24;-7.30;99.90
19799;DHT22;10059;59.850;10.454;2022-12-11T05:57:51;-7.30;99.90
19799;DHT22;10059;59.850;10.454;2022-12-11T06:00:19;-7.30;99.90
19799;DHT22;10059;59.850;10.454;2022-12-11T06:02:46;-7.10;99.90
19799;DHT22;10059;59.850;10.454;2022-12-11T06:05:13;-7.10;99.90
19799;DHT22;10059;59.850;10.454;2022-12-11T06:07:40;-7.10;99.90
19799;DHT22;10059;59.850;10.454;2022-12-11T06:10:07;-7.10;99.90
19799;DHT22;10059;59.850;10.454;2022-12-11T06:12:34;-7.10;99.90
19799;DHT22;10059;59.850;10.454;2022-12-11T06:15:01;-7.20;99.90
19799;DHT22;10059;59.850;10.454;2022-12-11T06:17:30;-7.20;99.90
19799;DHT22;10059;59.850;10.454;2022-12-11T06:19:57;-7.20;99.90
19799;DHT22;10059;59.850;10.454;2022-12-11T06:22:24;-7.20;99.90
19799;DHT22;10059;59.850;10.454;2022-12-11T06:24:51;-7.20;99.90
19799;DHT22;10059;59.850;10.454;2022-12-11T06:27:18;-7.30;99.90
19799;DHT22;10059;59.850;10.454;2022-12-11T06:29:45;-7.30;99.90
19799;DHT22;10059;59.850;10.454;2022-12-11T06:32:12;-7.30;99.90
19799;DHT22;10059;59.850;10.454;2022-12-11T06:34:41;-7.20;99.90
19799;DHT22;10059;59.850;10.454;2022-12-11T06:37:08;-7.20;99.90
19799;DHT22;10059;59.850;10.454;2022-12-11T06:39:34;-7.20;99.90
19799;DHT22;10059;59.850;10.454;2022-12-11T06:42:01;-7.10;99.90
19799;DHT22;10059;59.850;10.454;2022-12-11T06:44:28;-7.30;99.90
19799;DHT22;10059;59.850;10.454;2022-12-11T06:46:55;-7.20;99.90
19799;DHT22;10059;59.850;10.454;2022-12-11T06:49:22;-7.20;99.90
19799;DHT22;10059;59.850;10.454;2022-12-11T06:51:50;-7.30;99.90
19799;DHT22;10059;59.850;10.454;2022-12-11T06:54:17;-7.40;99.90
19799;DHT22;10059;59.850;10.454;2022-12-11T06:56:43;-7.40;99.90
19799;DHT22;10059;59.850;10.454;2022-12-11T06:59:10;-7.40;99.90
19799;DHT22;10059;59.850;10.454;2022-12-11T07:01:37;-7.40;99.90
19799;DHT22;10059;59.850;10.454;2022-12-11T07:04:05;-7.30;99.90
19799;DHT22;10059;59.850;10.454;2022-12-11T07:06:32;-7.20;99.90
19799;DHT22;10059;59.850;10.454;2022-12-11T07:09:02;-7.10;99.90
19799;DHT22;10059;59.850;10.454;2022-12-11T07:11:29;-7.30;99.90
19799;DHT22;10059;59.850;10.454;2022-12-11T07:13:57;-7.30;99.90
19799;DHT22;10059;59.850;10.454;2022-12-11T07:16:25;-7.30;99.90
19799;DHT22;10059;59.850;10.454;2022-12-11T07:18:52;-7.30;99.90
19799;DHT22;10059;59.850;10.454;2022-12-11T07:21:20;-7.30;99.90
19799;DHT22;10059;59.850;10.454;2022-12-11T07:23:47;-7.40;99.90
19799;DHT22;10059;59.850;10.454;2022-12-11T07:26:17;-7.60;99.90
19799;DHT22;10059;59.850;10.454;2022-12-11T07:28:44;-7.50;99.90
19799;DHT22;10059;59.850;10.454;2022-12-11T07:31:14;-7.50;99.90
19799;DHT22;10059;59.850;10.454;2022-12-11T07:33:42;-7.60;99.90
19799;DHT22;10059;59.850;10.454;2022-12-11T07:36:10;-7.80;99.90
19799;DHT22;10059;59.850;10.454;2022-12-11T07:38:37;-7.80;99.90
19799;DHT22;10059;59.850;10.454;2022-12-11T07:41:06;-7.80;99.90
19799;DHT22;10059;59.850;10.454;2022-12-11T07:43:35;-7.80;99.90
19799;DHT22;10059;59.850;10.454;2022-12-11T07:46:03;-7.80;99.90
19799;DHT22;10059;59.850;10.454;2022-12-11T07:48:30;-7.70;99.90
19799;DHT22;10059;59.850;10.454;2022-12-11T07:51:07;-7.60;99.90
19799;DHT22;10059;59.850;10.454;2022-12-11T07:53:34;-7.60;99.90
19799;DHT22;10059;59.850;10.454;2022-12-11T07:56:01;-7.70;99.90
19799;DHT22;10059;59.850;10.454;2022-12-11T07:58:28;-7.70;99.90
19799;DHT22;10059;59.850;10.454;2022-12-11T08:00:56;-7.60;99.90
19799;DHT22;10059;59.850;10.454;2022-12-11T08:03:23;-7.40;99.90
19799;DHT22;10059;59.850;10.454;2022-12-11T08:05:51;-7.30;99.90
19799;DHT22;10059;59.850;10.454;2022-12-11T08:08:18;-7.30;99.90
19799;DHT22;10059;59.850;10.454;2022-12-11T08:10:45;-7.20;99.90
19799;DHT22;10059;59.850;10.454;2022-12-11T08:13:12;-7.20;99.90
19799;DHT22;10059;59.850;10.454;2022-12-11T08:15:39;-7.20;99.90
19799;DHT22;10059;59.850;10.454;2022-12-11T08:18:08;-7.10;99.90
19799;DHT22;10059;59.850;10.454;2022-12-11T08:20:36;-7.30;99.90
19799;DHT22;10059;59.850;10.454;2022-12-11T08:23:03;-7.60;99.90
19799;DHT22;10059;59.850;10.454;2022-12-11T08:25:30;-7.60;99.90
19799;DHT22;10059;59.850;10.454;2022-12-11T08:27:57;-7.60;99.90
19799;DHT22;10059;59.850;10.454;2022-12-11T08:30:24;-7.40;99.90
19799;DHT22;10059;59.850;10.454;2022-12-11T08:32:50;-7.50;99.90
19799;DHT22;10059;59.850;10.454;2022-12-11T08:35:19;-7.80;99.90
19799;DHT22;10059;59.850;10.454;2022-12-11T08:37:45;-7.90;99.90
19799;DHT22;10059;59.850;10.454;2022-12-11T08:40:13;-8.00;99.90
19799;DHT22;10059;59.850;10.454;2022-12-11T08:42:39;-8.10;99.90
19799;DHT22;10059;59.850;10.454;2022-12-11T08:45:07;-8.30;99.90
19799;DHT22;10059;59.850;10.454;2022-12-11T08:47:34;-8.30;99.90
19799;DHT22;10059;59.850;10.454;2022-12-11T08:50:01;-8.20;99.90
19799;DHT22;10059;59.850;10.454;2022-12-11T08:52:29;-8.30;99.90
19799;DHT22;10059;59.850;10.454;2022-12-11T08:54:56;-8.20;99.90
19799;DHT22;10059;59.850;10.454;2022-12-11T08:57:23;-8.10;99.90
19799;DHT22;10059;59.850;10.454;2022-12-11T08:59:50;-8.00;99.90
19799;DHT22;10059;59.850;10.454;2022-12-11T09:02:17;-7.80;99.90
19799;DHT22;10059;59.850;10.454;2022-12-11T09:04:44;-8.00;99.90
19799;DHT22;10059;59.850;10.454;2022-12-11T09:07:11;-8.10;99.90
19799;DHT22;10059;59.850;10.454;2022-12-11T09:09:39;-8.30;99.90
19799;DHT22;10059;59.850;10.454;2022-12-11T09:12:06;-8.40;99.90
19799;DHT22;10059;59.850;10.454;2022-12-11T09:14:33;-8.40;99.90
19799;DHT22;10059;59.850;10.454;2022-12-11T09:17:00;-8.20;99.90
19799;DHT22;10059;59.850;10.454;2022-12-11T09:19:26;-8.10;99.90
19799;DHT22;10059;59.850;10.454;2022-12-11T09:21:53;-7.90;99.90
19799;DHT22;10059;59.850;10.454;2022-12-11T09:24:20;-7.80;99.90
19799;DHT22;10059;59.850;10.454;2022-12-11T09:26:48;-7.90;99.90
19799;DHT22;10059;59.850;10.454;2022-12-11T09:29:15;-8.10;99.90
19799;DHT22;10059;59.850;10.454;2022-12-11T09:31:42;-8.00;99.90
19799;DHT22;10059;59.850;10.454;2022-12-11T09:34:12;-7.90;99.90
19799;DHT22;10059;59.850;10.454;2022-12-11T09:36:39;-7.60;99.90
19799;DHT22;10059;59.850;10.454;2022-12-11T09:39:07;-7.60;99.90
19799;DHT22;10059;59.850;10.454;2022-12-11T09:41:37;-7.50;99.90
19799;DHT22;10059;59.850;10.454;2022-12-11T09:44:28;-7.40;99.90
19799;DHT22;10059;59.850;10.454;2022-12-11T09:46:57;-7.20;99.90
19799;DHT22;10059;59.850;10.454;2022-12-11T09:49:31;-7.10;99.90
19799;DHT22;10059;59.850;10.454;2022-12-11T09:52:07;-7.00;99.90
19799;DHT22;10059;59.850;10.454;2022-12-11T09:54:35;-7.00;99.90
19799;DHT22;10059;59.850;10.454;2022-12-11T09:57:12;-6.90;99.90
19799;DHT22;10059;59.850;10.454;2022-12-11T09:59:56;-7.00;99.90
19799;DHT22;10059;59.850;10.454;2022-12-11T10:02:35;-7.00;99.90
19799;DHT22;10059;59.850;10.454;2022-12-11T10:05:12;-6.90;99.90
19799;DHT22;10059;59.850;10.454;2022-12-11T10:07:47;-6.90;99.90
19799;DHT22;10059;59.850;10.454;2022-12-11T10:10:22;-6.80;99.90
19799;DHT22;10059;59.850;10.454;2022-12-11T10:12:58;-6.70;99.90
19799;DHT22;10059;59.850;10.454;2022-12-11T10:15:36;-6.50;99.90
19799;DHT22;10059;59.850;10.454;2022-12-11T10:18:10;-6.30;99.90
19799;DHT22;10059;59.850;10.454;2022-12-11T10:20:38;-6.20;99.90
19799;DHT22;10059;59.850;10.454;2022-12-11T10:23:10;-6.00;99.90
19799;DHT22;10059;59.850;10.454;2022-12-11T10:25:42;-5.90;99.90
19799;DHT22;10059;59.850;10.454;2022-12-11T10:28:11;-5.90;99.90
19799;DHT22;10059;59.850;10.454;2022-12-11T10:30:44;-5.70;99.90
19799;DHT22;10059;59.850;10.454;2022-12-11T10:33:17;-5.60;99.90
19799;DHT22;10059;59.850;10.454;2022-12-11T10:35:48;-5.70;99.90
19799;DHT22;10059;59.850;10.454;2022-12-11T10:38:23;-5.70;99.90
19799;DHT22;10059;59.850;10.454;2022-12-11T10:40:55;-5.50;99.90
19799;DHT22;10059;59.850;10.454;2022-12-11T10:43:32;-5.50;99.90
19799;DHT22;10059;59.850;10.454;2022-12-11T10:46:02;-5.50;99.90
19799;DHT22;10059;59.850;10.454;2022-12-11T10:48:29;-5.40;99.90
19799;DHT22;10059;59.850;10.454;2022-12-11T10:50:59;-5.40;99.90
19799;DHT22;10059;59.850;10.454;2022-12-11T10:53:27;-5.30;99.90
19799;DHT22;10059;59.850;10.454;2022-12-11T10:55:54;-5.30;99.90
19799;DHT22;10059;59.850;10.454;2022-12-11T10:58:24;-5.30;99.90
19799;DHT22;10059;59.850;10.454;2022-12-11T11:01:05;-5.30;99.90
19799;DHT22;10059;59.850;10.454;2022-12-11T11:03:35;-5.20;99.90
19799;DHT22;10059;59.850;10.454;2022-12-11T11:06:11;-5.20;99.90
19799;DHT22;10059;59.850;10.454;2022-12-11T11:08:42;-5.20;99.90
19799;DHT22;10059;59.850;10.454;2022-12-11T11:11:21;-5.30;99.90
19799;DHT22;10059;59.850;10.454;2022-12-11T11:13:48;-5.50;99.90
19799;DHT22;10059;59.850;10.454;2022-12-11T11:16:18;-5.50;99.90
19799;DHT22;10059;59.850;10.454;2022-12-11T11:18:51;-5.70;99.90
19799;DHT22;10059;59.850;10.454;2022-12-11T11:21:20;-5.60;99.90
19799;DHT22;10059;59.850;10.454;2022-12-11T11:23:48;-5.70;99.90
19799;DHT22;10059;59.850;10.454;2022-12-11T11:26:15;-5.70;99.90
19799;DHT22;10059;59.850;10.454;2022-12-11T11:28:47;-5.70;99.90
19799;DHT22;10059;59.850;10.454;2022-12-11T11:31:17;-5.60;99.90
19799;DHT22;10059;59.850;10.454;2022-12-11T11:33:52;-5.60;99.90
19799;DHT22;10059;59.850;10.454;2022-12-11T11:36:22;-5.70;99.90
19799;DHT22;10059;59.850;10.454;2022-12-11T11:38:57;-5.70;99.90
19799;DHT22;10059;59.850;10.454;2022-12-11T11:41:33;-5.60;99.90
19799;DHT22;10059;59.850;10.454;2022-12-11T11:44:05;-5.60;99.90
19799;DHT22;10059;59.850;10.454;2022-12-11T11:46:37;-5.60;99.90
19799;DHT22;10059;59.850;10.454;2022-12-11T11:49:11;-5.50;99.90
19799;DHT22;10059;59.850;10.454;2022-12-11T11:51:46;-5.40;99.90
19799;DHT22;10059;59.850;10.454;2022-12-11T11:54:23;-5.40;99.90
19799;DHT22;10059;59.850;10.454;2022-12-11T11:56:51;-5.50;99.90
19799;DHT22;10059;59.850;10.454;2022-12-11T11:59:23;-5.60;99.90
19799;DHT22;10059;59.850;10.454;2022-12-11T12:01:55;-5.70;99.90
19799;DHT22;10059;59.850;10.454;2022-12-11T12:04:23;-5.60;99.90
19799;DHT22;10059;59.850;10.454;2022-12-11T12:07:03;-5.70;99.90
19799;DHT22;10059;59.850;10.454;2022-12-11T12:09:43;-5.70;99.90
19799;DHT22;10059;59.850;10.454;2022-12-11T12:12:18;-5.60;99.90
19799;DHT22;10059;59.850;10.454;2022-12-11T12:14:57;-5.70;99.90
19799;DHT22;10059;59.850;10.454;2022-12-11T12:17:34;-5.80;99.90
19799;DHT22;10059;59.850;10.454;2022-12-11T12:20:12;-5.70;99.90
19799;DHT22;10059;59.850;10.454;2022-12-11T12:22:53;-5.60;99.90
19799;DHT22;10059;59.850;10.454;2022-12-11T12:25:24;-5.40;99.90
19799;DHT22;10059;59.850;10.454;2022-12-11T12:27:57;-5.50;99.90
19799;DHT22;10059;59.850;10.454;2022-12-11T12:30:26;-5.70;99.90
19799;DHT22;10059;59.850;10.454;2022-12-11T12:33:09;-5.70;99.90
19799;DHT22;10059;59.850;10.454;2022-12-11T12:35:47;-5.80;99.90
19799;DHT22;10059;59.850;10.454;2022-12-11T12:38:22;-5.90;99.90
19799;DHT22;10059;59.850;10.454;2022-12-11T12:40:56;-5.90;99.90
19799;DHT22;10059;59.850;10.454;2022-12-11T12:43:43;-5.90;99.90
19799;DHT22;10059;59.850;10.454;2022-12-11T12:46:21;-5.80;99.90
19799;DHT22;10059;59.850;10.454;2022-12-11T12:48:56;-5.60;99.90
19799;DHT22;10059;59.850;10.454;2022-12-11T12:51:24;-5.60;99.90
19799;DHT22;10059;59.850;10.454;2022-12-11T12:53:58;-5.60;99.90
19799;DHT22;10059;59.850;10.454;2022-12-11T12:56:28;-5.70;99.90
19799;DHT22;10059;59.850;10.454;2022-12-11T12:58:57;-5.90;99.90
19799;DHT22;10059;59.850;10.454;2022-12-11T13:01:25;-5.70;99.90
19799;DHT22;10059;59.850;10.454;2022-12-11T13:03:56;-5.60;99.90
19799;DHT22;10059;59.850;10.454;2022-12-11T13:06:29;-5.60;99.90
19799;DHT22;10059;59.850;10.454;2022-12-11T13:08:56;-5.70;99.90
19799;DHT22;10059;59.850;10.454;2022-12-11T13:11:31;-5.80;99.90
19799;DHT22;10059;59.850;10.454;2022-12-11T13:14:04;-5.90;99.90
19799;DHT22;10059;59.850;10.454;2022-12-11T13:16:35;-5.90;99.90
19799;DHT22;10059;59.850;10.454;2022-12-11T13:19:15;-5.90;99.90
19799;DHT22;10059;59.850;10.454;2022-12-11T13:21:54;-6.00;99.90
19799;DHT22;10059;59.850;10.454;2022-12-11T13:24:26;-6.20;99.90
19799;DHT22;10059;59.850;10.454;2022-12-11T13:26:53;-6.20;99.90
19799;DHT22;10059;59.850;10.454;2022-12-11T13:29:32;-6.30;99.90
19799;DHT22;10059;59.850;10.454;2022-12-11T13:32:01;-6.10;99.90
19799;DHT22;10059;59.850;10.454;2022-12-11T13:34:32;-6.10;99.90
19799;DHT22;10059;59.850;10.454;2022-12-11T13:37:01;-6.00;99.90
19799;DHT22;10059;59.850;10.454;2022-12-11T13:39:30;-5.90;99.90
19799;DHT22;10059;59.850;10.454;2022-12-11T13:42:02;-5.90;99.90
19799;DHT22;10059;59.850;10.454;2022-12-11T13:44:33;-5.90;99.90
19799;DHT22;10059;59.850;10.454;2022-12-11T13:47:04;-6.00;99.90
19799;DHT22;10059;59.850;10.454;2022-12-11T13:49:36;-6.20;99.90
19799;DHT22;10059;59.850;10.454;2022-12-11T13:52:04;-6.30;99.90
19799;DHT22;10059;59.850;10.454;2022-12-11T13:54:33;-6.30;99.90
19799;DHT22;10059;59.850;10.454;2022-12-11T13:57:11;-6.20;99.90
19799;DHT22;10059;59.850;10.454;2022-12-11T13:59:42;-6.00;99.90
19799;DHT22;10059;59.850;10.454;2022-12-11T14:02:16;-6.00;99.90
19799;DHT22;10059;59.850;10.454;2022-12-11T14:04:47;-6.10;99.90
19799;DHT22;10059;59.850;10.454;2022-12-11T14:07:20;-6.10;99.90
19799;DHT22;10059;59.850;10.454;2022-12-11T14:09:49;-6.10;99.90
19799;DHT22;10059;59.850;10.454;2022-12-11T14:12:18;-6.20;99.90
19799;DHT22;10059;59.850;10.454;2022-12-11T14:14:49;-6.20;99.90
19799;DHT22;10059;59.850;10.454;2022-12-11T14:17:22;-6.20;99.90
19799;DHT22;10059;59.850;10.454;2022-12-11T14:19:51;-6.20;99.90
19799;DHT22;10059;59.850;10.454;2022-12-11T14:22:21;-6.20;99.90
19799;DHT22;10059;59.850;10.454;2022-12-11T14:24:49;-6.20;99.90
19799;DHT22;10059;59.850;10.454;2022-12-11T14:27:17;-6.20;99.90
19799;DHT22;10059;59.850;10.454;2022-12-11T14:29:44;-6.20;99.90
19799;DHT22;10059;59.850;10.454;2022-12-11T14:32:17;-6.20;99.90
19799;DHT22;10059;59.850;10.454;2022-12-11T14:34:47;-6.20;99.90
19799;DHT22;10059;59.850;10.454;2022-12-11T14:37:18;-6.10;99.90
19799;DHT22;10059;59.850;10.454;2022-12-11T14:39:53;-6.10;99.90
19799;DHT22;10059;59.850;10.454;2022-12-11T14:42:24;-6.10;99.90
19799;DHT22;10059;59.850;10.454;2022-12-11T14:44:54;-6.20;99.90
19799;DHT22;10059;59.850;10.454;2022-12-11T14:47:24;-6.20;99.90
19799;DHT22;10059;59.850;10.454;2022-12-11T14:49:55;-6.10;99.90
19799;DHT22;10059;59.850;10.454;2022-12-11T14:52:29;-6.10;99.90
19799;DHT22;10059;59.850;10.454;2022-12-11T14:55:01;-6.00;99.90
19799;DHT22;10059;59.850;10.454;2022-12-11T14:57:29;-6.10;99.90
19799;DHT22;10059;59.850;10.454;2022-12-11T14:59:58;-6.20;99.90
19799;DHT22;10059;59.850;10.454;2022-12-11T15:02:27;-6.20;99.90
19799;DHT22;10059;59.850;10.454;2022-12-11T15:05:11;-6.20;99.90
19799;DHT22;10059;59.850;10.454;2022-12-11T15:07:40;-6.30;99.90
19799;DHT22;10059;59.850;10.454;2022-12-11T15:10:25;-6.10;99.90
19799;DHT22;10059;59.850;10.454;2022-12-11T15:12:53;-6.10;99.90
19799;DHT22;10059;59.850;10.454;2022-12-11T15:15:20;-6.30;99.90
19799;DHT22;10059;59.850;10.454;2022-12-11T15:17:48;-6.30;99.90
19799;DHT22;10059;59.850;10.454;2022-12-11T15:20:24;-6.40;99.90
19799;DHT22;10059;59.850;10.454;2022-12-11T15:22:57;-6.60;99.90
19799;DHT22;10059;59.850;10.454;2022-12-11T15:25:27;-6.50;99.90
19799;DHT22;10059;59.850;10.454;2022-12-11T15:27:55;-6.40;99.90
19799;DHT22;10059;59.850;10.454;2022-12-11T15:30:32;-6.30;99.90
19799;DHT22;10059;59.850;10.454;2022-12-11T15:33:16;-6.20;99.90